createdAt,value
2022-10-11T00:00:45.159Z,7.53
2022-10-11T00:03:12.357Z,8.15
2022-10-11T00:05:39.095Z,7.55
2022-10-11T00:08:06.043Z,8.80
2022-10-11T00:10:33.683Z,7.88
2022-10-11T00:13:00.650Z,7.93
2022-10-11T00:15:27.344Z,8.13
2022-10-11T00:17:54.049Z,7.18
2022-10-11T00:20:20.817Z,6.55
2022-10-11T00:22:47.629Z,7.13
2022-10-11T00:25:14.288Z,7.03
2022-10-11T00:27:40.970Z,6.88
2022-10-11T00:30:08.749Z,7.28
2022-10-11T00:32:36.865Z,7.68
2022-10-11T00:35:06.471Z,8.77
2022-10-11T00:37:37.528Z,7.68
2022-10-11T00:40:08.312Z,8.30
2022-10-11T00:42:34.948Z,7.82
2022-10-11T00:45:40.147Z,7.90
2022-10-11T00:48:16.110Z,7.20
2022-10-11T00:50:43.015Z,6.38
2022-10-11T00:53:11.478Z,6.70
2022-10-11T00:55:42.148Z,6.60
2022-10-11T00:58:09.379Z,6.72
2022-10-11T01:00:36.201Z,6.97
2022-10-11T01:03:03.365Z,7.10
2022-10-11T01:05:30.750Z,7.05
2022-10-11T01:07:59.400Z,7.38
2022-10-11T01:10:27.180Z,7.15
2022-10-11T01:13:12.601Z,6.10
2022-10-11T01:15:46.284Z,6.93
2022-10-11T01:18:18.786Z,6.80
2022-10-11T01:20:58.019Z,6.70
2022-10-11T01:23:27.602Z,6.75
2022-10-11T01:26:26.111Z,7.78
2022-10-11T01:29:22.533Z,6.28
2022-10-11T01:32:21.042Z,7.13
2022-10-11T01:35:06.853Z,5.60
2022-10-11T01:37:37.395Z,6.32
2022-10-11T01:40:11.640Z,7.60
2022-10-11T01:42:39.887Z,6.88
2022-10-11T01:45:17.457Z,7.05
2022-10-11T01:47:45.844Z,6.57
2022-10-11T01:50:38.698Z,5.38
2022-10-11T01:53:31.288Z,8.38
2022-10-11T01:56:21.002Z,8.82
2022-10-11T01:58:58.866Z,10.23
2022-10-11T02:02:03.975Z,11.43
2022-10-11T02:04:45.589Z,8.30
2022-10-11T02:07:30.340Z,7.65
2022-10-11T02:10:08.235Z,6.95
2022-10-11T02:12:40.428Z,7.22
2022-10-11T02:15:09.939Z,6.38
2022-10-11T02:17:40.931Z,7.28
2022-10-11T02:20:12.155Z,6.05
2022-10-11T02:22:41.330Z,5.65
2022-10-11T02:27:38.800Z,6.18
2022-10-11T02:30:07.634Z,5.80
2022-10-11T02:32:36.063Z,6.13
2022-10-11T02:35:03.356Z,5.60
2022-10-11T02:37:54.192Z,5.93
2022-10-11T02:40:24.041Z,5.88
2022-10-11T02:43:18.066Z,5.43
2022-10-11T02:45:48.464Z,5.90
2022-10-11T02:48:15.528Z,6.47
2022-10-11T02:50:42.574Z,6.22
2022-10-11T02:53:09.501Z,6.35
2022-10-11T02:55:36.511Z,6.03
2022-10-11T02:58:03.751Z,5.78
2022-10-11T03:00:30.871Z,5.90
2022-10-11T03:02:57.597Z,7.22
2022-10-11T03:05:24.290Z,5.68
2022-10-11T03:07:50.906Z,6.05
2022-10-11T03:10:17.637Z,5.93
2022-10-11T03:12:44.345Z,6.55
2022-10-11T03:15:11.227Z,7.20
2022-10-11T03:17:37.903Z,5.38
2022-10-11T03:20:07.900Z,6.55
2022-10-11T03:22:34.625Z,7.35
2022-10-11T03:25:04.326Z,7.75
2022-10-11T03:27:32.278Z,6.88
2022-10-11T03:29:59.085Z,7.80
2022-10-11T03:32:25.855Z,7.80
2022-10-11T03:34:52.521Z,7.53
2022-10-11T03:37:19.164Z,8.23
2022-10-11T03:39:46.006Z,10.32
2022-10-11T03:42:13.828Z,8.38
2022-10-11T03:44:41.749Z,8.45
2022-10-11T03:47:09.084Z,7.72
2022-10-11T03:49:38.806Z,8.68
2022-10-11T03:52:07.947Z,7.28
2022-10-11T03:54:34.668Z,9.20
2022-10-11T03:57:02.584Z,9.02
2022-10-11T03:59:29.233Z,8.00
2022-10-11T04:01:55.916Z,8.02
2022-10-11T04:04:22.637Z,9.77
2022-10-11T04:06:49.281Z,10.35
2022-10-11T04:09:15.987Z,14.85
2022-10-11T04:11:42.636Z,15.23
2022-10-11T04:14:09.327Z,10.43
2022-10-11T04:16:38.708Z,9.98
2022-10-11T04:19:05.477Z,9.60
2022-10-11T04:21:32.421Z,10.27
2022-10-11T04:23:59.050Z,8.65
2022-10-11T04:26:25.736Z,8.50
2022-10-11T04:28:52.482Z,7.32
2022-10-11T04:31:19.577Z,5.68
2022-10-11T04:33:46.272Z,8.00
2022-10-11T04:36:12.960Z,8.95
2022-10-11T04:38:39.962Z,8.70
2022-10-11T04:41:12.656Z,7.63
2022-10-11T04:43:39.854Z,9.10
2022-10-11T04:46:07.107Z,8.13
2022-10-11T04:48:34.338Z,7.88
2022-10-11T04:51:00.977Z,8.05
2022-10-11T04:53:28.034Z,7.18
2022-10-11T04:56:04.099Z,6.78
2022-10-11T04:58:32.685Z,7.35
2022-10-11T05:00:59.560Z,12.55
2022-10-11T05:03:26.793Z,7.80
2022-10-11T05:05:53.770Z,6.65
2022-10-11T05:08:23.191Z,7.93
2022-10-11T05:11:04.266Z,7.00
2022-10-11T05:13:31.863Z,7.45
2022-10-11T05:15:58.830Z,7.75
2022-10-11T05:18:25.679Z,8.57
2022-10-11T05:21:05.774Z,7.50
2022-10-11T05:23:33.479Z,6.15
2022-10-11T05:26:00.402Z,7.22
2022-10-11T05:28:27.856Z,9.48
2022-10-11T05:30:55.046Z,9.90
2022-10-11T05:33:21.780Z,10.10
2022-10-11T05:35:48.453Z,11.30
2022-10-11T05:38:15.133Z,11.50
2022-10-11T05:40:41.794Z,10.43
2022-10-11T05:43:08.835Z,11.77
2022-10-11T05:45:38.142Z,12.82
2022-10-11T05:48:05.086Z,22.58
2022-10-11T05:50:32.215Z,49.63
2022-10-11T05:52:58.837Z,62.60
2022-10-11T05:55:25.884Z,67.70
2022-10-11T05:57:56.051Z,62.28
2022-10-11T06:00:24.216Z,51.10
2022-10-11T06:02:51.007Z,44.22
2022-10-11T06:05:18.070Z,69.75
2022-10-11T06:07:44.827Z,60.78
2022-10-11T06:10:12.214Z,53.70
2022-10-11T06:12:39.225Z,40.42
2022-10-11T06:15:06.927Z,30.23
2022-10-11T06:17:33.589Z,17.27
2022-10-11T06:20:00.228Z,15.05
2022-10-11T06:22:27.585Z,11.40
2022-10-11T06:24:54.243Z,9.80
2022-10-11T06:27:20.893Z,10.55
2022-10-11T06:29:47.576Z,10.77
2022-10-11T06:32:14.348Z,9.23
2022-10-11T06:34:41.039Z,9.55
2022-10-11T06:37:07.938Z,8.18
2022-10-11T06:39:35.112Z,3.65
2022-10-11T06:42:02.077Z,3.42
2022-10-11T06:44:29.342Z,3.72
2022-10-11T06:46:55.980Z,3.42
2022-10-11T06:49:23.671Z,2.25
2022-10-11T06:51:50.817Z,2.65
2022-10-11T06:54:17.586Z,2.03
2022-10-11T06:56:45.899Z,4.18
2022-10-11T06:59:13.558Z,4.95
2022-10-11T07:01:40.308Z,1.50
2022-10-11T07:04:08.195Z,1.58
2022-10-11T07:06:38.346Z,1.33
2022-10-11T07:09:05.532Z,1.30
2022-10-11T07:11:32.594Z,2.10
2022-10-11T07:14:07.964Z,1.67
2022-10-11T07:16:38.199Z,1.70
2022-10-11T07:19:06.571Z,1.35
2022-10-11T07:21:34.723Z,1.92
2022-10-11T07:24:02.105Z,1.55
2022-10-11T07:26:33.799Z,1.33
2022-10-11T07:29:04.616Z,1.80
2022-10-11T07:31:31.458Z,1.27
2022-10-11T07:33:58.144Z,1.05
2022-10-11T07:36:25.745Z,1.92
2022-10-11T07:38:52.571Z,1.88
2022-10-11T07:41:19.776Z,2.70
2022-10-11T07:43:48.000Z,2.25
2022-10-11T07:46:15.297Z,2.53
2022-10-11T07:48:42.020Z,1.83
2022-10-11T07:51:20.129Z,2.15
2022-10-11T07:54:07.657Z,5.22
2022-10-11T07:56:34.439Z,1.70
2022-10-11T07:59:03.663Z,1.50
2022-10-11T08:01:31.049Z,2.33
2022-10-11T08:03:58.456Z,1.90
2022-10-11T08:06:29.333Z,1.45
2022-10-11T08:08:57.369Z,1.67
2022-10-11T08:11:35.984Z,1.85
2022-10-11T08:14:05.244Z,1.42
2022-10-11T08:16:32.318Z,1.48
2022-10-11T08:18:59.040Z,2.15
2022-10-11T08:21:26.955Z,2.60
2022-10-11T08:23:53.695Z,2.60
2022-10-11T08:26:20.479Z,2.40
2022-10-11T08:28:47.244Z,2.28
2022-10-11T08:31:15.868Z,2.13
2022-10-11T08:33:43.191Z,2.10
2022-10-11T08:36:10.594Z,1.80
2022-10-11T08:38:38.218Z,1.83
2022-10-11T08:41:20.544Z,1.00
2022-10-11T08:43:58.342Z,2.65
2022-10-11T08:46:30.873Z,1.90
2022-10-11T08:49:00.447Z,1.80
2022-10-11T08:51:28.196Z,1.65
2022-10-11T08:54:07.786Z,1.55
2022-10-11T08:56:41.891Z,1.50
2022-10-11T08:59:11.482Z,1.55
2022-10-11T09:01:46.891Z,1.70
2022-10-11T09:04:15.421Z,1.05
2022-10-11T09:06:54.943Z,1.52
2022-10-11T09:10:00.125Z,1.20
2022-10-11T09:12:48.467Z,1.70
2022-10-11T09:15:29.547Z,1.33
2022-10-11T09:18:09.765Z,1.27
2022-10-11T09:20:43.929Z,1.80
2022-10-11T09:23:35.476Z,1.50
2022-10-11T09:26:07.703Z,1.73
2022-10-11T09:29:11.868Z,1.13
2022-10-11T09:31:38.664Z,1.75
2022-10-11T09:34:14.490Z,1.92
2022-10-11T09:36:56.380Z,1.33
2022-10-11T09:39:37.222Z,1.80
2022-10-11T09:42:07.121Z,1.48
2022-10-11T09:44:39.377Z,2.17
2022-10-11T09:47:07.303Z,2.17
2022-10-11T09:49:40.134Z,1.65
2022-10-11T09:52:14.969Z,1.08
2022-10-11T09:54:43.972Z,2.30
2022-10-11T09:57:19.456Z,1.25
2022-10-11T10:00:06.317Z,1.90
2022-10-11T10:02:41.775Z,1.30
2022-10-11T10:05:08.417Z,1.50
2022-10-11T10:07:36.239Z,1.30
2022-10-11T10:10:27.975Z,1.65
2022-10-11T10:12:56.987Z,1.55
2022-10-11T10:15:23.951Z,1.08
2022-10-11T10:17:51.806Z,1.60
2022-10-11T10:20:27.760Z,1.70
2022-10-11T10:22:54.505Z,3.88
2022-10-11T10:25:39.602Z,1.95
2022-10-11T10:28:24.388Z,1.83
2022-10-11T10:30:58.511Z,2.72
2022-10-11T10:33:27.639Z,2.10
2022-10-11T10:35:58.382Z,1.30
2022-10-11T10:38:37.829Z,1.08
2022-10-11T10:41:09.289Z,2.35
2022-10-11T10:43:37.998Z,1.80
2022-10-11T10:46:21.847Z,1.35
2022-10-11T10:49:52.691Z,1.20
2022-10-11T10:52:18.602Z,1.50
2022-10-11T10:55:03.341Z,1.63
2022-10-11T10:57:38.871Z,1.55
2022-10-11T11:00:16.179Z,1.45
2022-10-11T11:03:02.166Z,1.02
2022-10-11T11:05:48.375Z,1.17
2022-10-11T11:08:36.073Z,1.40
2022-10-11T11:11:21.410Z,1.85
2022-10-11T11:14:21.848Z,1.45
2022-10-11T11:16:48.522Z,1.65
2022-10-11T11:19:31.156Z,1.73
2022-10-11T11:22:09.272Z,1.90
2022-10-11T11:24:50.800Z,1.98
2022-10-11T11:27:53.784Z,1.75
2022-10-11T11:31:02.677Z,1.77
2022-10-11T11:33:53.441Z,1.77
2022-10-11T11:36:43.256Z,2.58
2022-10-11T11:39:34.706Z,1.38
2022-10-11T11:42:09.160Z,8.38
2022-10-11T11:44:41.390Z,2.22
2022-10-11T11:47:31.845Z,1.55
2022-10-11T11:50:01.467Z,2.03
2022-10-11T11:52:40.120Z,2.15
2022-10-11T11:55:13.592Z,1.55
2022-10-11T11:57:52.326Z,2.30
2022-10-11T12:00:24.201Z,2.63
2022-10-11T12:02:53.884Z,1.63
2022-10-11T12:05:23.968Z,2.08
2022-10-11T12:07:55.076Z,2.55
2022-10-11T12:10:32.155Z,2.33
2022-10-11T12:13:07.912Z,1.45
2022-10-11T12:15:35.095Z,1.60
2022-10-11T12:18:14.394Z,3.22
2022-10-11T12:20:42.173Z,1.88
2022-10-11T12:23:30.722Z,2.15
2022-10-11T12:26:27.994Z,2.45
2022-10-11T12:29:00.368Z,3.00
2022-10-11T12:31:31.468Z,2.40
2022-10-11T12:34:01.165Z,2.22
2022-10-11T12:36:40.692Z,2.50
2022-10-11T12:39:19.679Z,2.40
2022-10-11T12:41:53.725Z,2.38
2022-10-11T12:44:28.219Z,2.20
2022-10-11T12:46:54.837Z,2.97
2022-10-11T12:49:31.183Z,2.50
2022-10-11T12:52:05.305Z,2.25
2022-10-11T12:55:13.307Z,2.88
2022-10-11T12:58:01.644Z,3.00
2022-10-11T13:00:31.785Z,7.25
2022-10-11T13:03:03.545Z,1.67
2022-10-11T13:05:34.641Z,1.65
2022-10-11T13:08:04.430Z,2.00
2022-10-11T13:10:37.881Z,2.58
2022-10-11T13:13:09.870Z,1.67
2022-10-11T13:15:36.525Z,2.80
2022-10-11T13:18:03.292Z,2.17
2022-10-11T13:20:35.202Z,2.95
2022-10-11T13:23:04.270Z,3.05
2022-10-11T13:25:36.906Z,2.30
2022-10-11T13:28:04.719Z,2.67
2022-10-11T13:30:34.383Z,2.35
2022-10-11T13:33:02.143Z,2.28
2022-10-11T13:35:38.729Z,1.50
2022-10-11T13:38:08.660Z,1.83
2022-10-11T13:40:35.599Z,1.90
2022-10-11T13:43:02.759Z,2.40
2022-10-11T13:45:32.398Z,2.38
2022-10-11T13:47:59.138Z,2.35
2022-10-11T13:50:34.672Z,1.95
2022-10-11T13:53:22.976Z,2.55
2022-10-11T13:56:06.884Z,2.80
2022-10-11T13:58:38.751Z,4.68
2022-10-11T14:01:08.160Z,3.00
2022-10-11T14:03:42.395Z,2.90
2022-10-11T14:06:09.516Z,2.70
2022-10-11T14:08:42.348Z,2.35
2022-10-11T14:11:11.453Z,2.88
2022-10-11T14:13:40.904Z,2.72
2022-10-11T14:16:18.206Z,2.72
2022-10-11T14:18:50.259Z,2.65
2022-10-11T14:21:20.100Z,2.42
2022-10-11T14:24:05.212Z,2.72
2022-10-11T14:26:35.661Z,2.88
2022-10-11T14:29:25.369Z,2.13
2022-10-11T14:31:59.296Z,2.72
2022-10-11T14:34:26.273Z,3.00
2022-10-11T14:36:53.691Z,3.13
2022-10-11T14:39:23.105Z,2.60
2022-10-11T14:41:52.312Z,2.75
2022-10-11T14:44:19.774Z,2.83
2022-10-11T14:46:47.937Z,2.28
2022-10-11T14:49:23.075Z,3.03
2022-10-11T14:51:50.817Z,3.00
2022-10-11T14:54:19.263Z,2.63
2022-10-11T14:56:46.451Z,3.28
2022-10-11T14:59:16.569Z,3.20
2022-10-11T15:01:43.348Z,3.13
2022-10-11T15:04:10.093Z,3.70
2022-10-11T15:06:39.075Z,3.28
2022-10-11T15:09:06.170Z,2.95
2022-10-11T15:11:33.253Z,4.38
2022-10-11T15:13:59.913Z,4.00
2022-10-11T15:16:27.079Z,3.60
2022-10-11T15:18:53.792Z,3.05
2022-10-11T15:21:25.581Z,4.00
2022-10-11T15:23:53.273Z,4.35
2022-10-11T15:26:25.452Z,2.80
2022-10-11T15:28:53.631Z,4.18
2022-10-11T15:31:20.924Z,3.85
2022-10-11T15:33:47.652Z,4.15
2022-10-11T15:36:17.196Z,3.40
2022-10-11T15:38:44.171Z,4.03
2022-10-11T15:41:13.376Z,3.90
2022-10-11T15:43:40.401Z,3.90
2022-10-11T15:46:07.422Z,3.33
2022-10-11T15:48:34.732Z,4.05
2022-10-11T15:51:01.932Z,2.90
2022-10-11T15:53:31.458Z,3.58
2022-10-11T15:56:01.570Z,3.88
2022-10-11T15:58:30.706Z,4.38
2022-10-11T16:01:00.518Z,9.07
2022-10-11T16:03:29.636Z,3.83
2022-10-11T16:08:25.979Z,4.93
2022-10-11T16:10:53.317Z,3.97
2022-10-11T16:13:20.501Z,4.70
2022-10-11T16:15:48.647Z,4.57
2022-10-11T16:18:17.241Z,3.78
2022-10-11T16:20:46.615Z,2.90
2022-10-11T16:23:13.526Z,3.90
2022-10-11T16:25:41.277Z,5.03
2022-10-11T16:28:08.495Z,3.47
2022-10-11T16:30:38.890Z,5.53
2022-10-11T16:33:05.641Z,4.13
2022-10-11T16:35:32.799Z,4.38
2022-10-11T16:38:00.844Z,3.28
2022-10-11T16:40:29.912Z,4.88
2022-10-11T16:45:23.288Z,4.55
2022-10-11T16:47:49.933Z,5.05
2022-10-11T16:50:16.609Z,4.78
2022-10-11T16:52:43.286Z,4.78
2022-10-11T16:55:10.017Z,3.53
2022-10-11T16:57:37.853Z,3.85
2022-10-11T17:00:09.149Z,5.25
2022-10-11T17:02:36.740Z,3.92
2022-10-11T17:05:04.001Z,4.75
2022-10-11T17:07:32.082Z,3.95
2022-10-11T17:10:01.024Z,4.45
2022-10-11T17:12:28.222Z,4.72
2022-10-11T17:14:55.169Z,4.60
2022-10-11T17:17:21.876Z,4.78
2022-10-11T17:19:48.984Z,5.53
2022-10-11T17:22:17.872Z,3.90
2022-10-11T17:24:45.193Z,3.40
2022-10-11T17:27:11.985Z,4.55
2022-10-11T17:29:38.760Z,7.63
2022-10-11T17:32:05.602Z,4.25
2022-10-11T17:34:32.310Z,5.57
2022-10-11T17:36:59.124Z,7.35
2022-10-11T17:39:25.908Z,10.27
2022-10-11T17:41:53.074Z,8.35
2022-10-11T17:44:20.381Z,9.68
2022-10-11T17:46:47.663Z,12.27
2022-10-11T17:49:14.440Z,6.22
2022-10-11T17:51:41.468Z,8.00
2022-10-11T17:54:12.988Z,8.23
2022-10-11T17:56:41.592Z,7.10
2022-10-11T17:59:09.496Z,8.00
2022-10-11T18:01:36.338Z,7.88
2022-10-11T18:04:04.660Z,7.75
2022-10-11T18:06:33.628Z,6.05
2022-10-11T18:09:01.626Z,6.10
2022-10-11T18:11:28.764Z,7.50
2022-10-11T18:13:55.748Z,5.97
2022-10-11T18:16:24.715Z,7.32
2022-10-11T18:18:51.417Z,7.60
2022-10-11T18:21:18.805Z,6.38
2022-10-11T18:23:46.191Z,4.93
2022-10-11T18:26:26.696Z,5.95
2022-10-11T18:28:57.529Z,5.68
2022-10-11T18:31:26.022Z,4.68
2022-10-11T18:33:53.737Z,4.40
2022-10-11T18:36:23.211Z,4.93
2022-10-11T18:38:53.667Z,4.70
2022-10-11T18:41:22.294Z,4.25
2022-10-11T18:43:53.825Z,8.68
2022-10-11T18:46:21.618Z,5.38
2022-10-11T18:48:49.921Z,7.38
2022-10-11T18:51:28.286Z,7.40
2022-10-11T18:53:55.503Z,6.82
2022-10-11T18:56:24.663Z,9.25
2022-10-11T18:58:52.981Z,10.90
2022-10-11T19:01:22.419Z,7.82
2022-10-11T19:03:52.404Z,6.20
2022-10-11T19:06:21.932Z,7.55
2022-10-11T19:09:10.437Z,7.22
2022-10-11T19:11:37.302Z,8.73
2022-10-11T19:14:15.286Z,14.55
2022-10-11T19:16:49.568Z,5.30
2022-10-11T19:19:16.871Z,8.60
2022-10-11T19:21:43.499Z,5.90
2022-10-11T19:24:10.168Z,11.05
2022-10-11T19:26:39.440Z,15.73
2022-10-11T19:29:07.598Z,13.32
2022-10-11T19:31:36.050Z,8.80
2022-10-11T19:34:02.935Z,8.65
2022-10-11T19:36:36.299Z,9.15
2022-10-11T19:39:04.381Z,7.80
2022-10-11T19:41:31.279Z,13.75
2022-10-11T19:44:00.733Z,13.05
2022-10-11T19:46:49.772Z,16.08
2022-10-11T19:49:17.516Z,15.30
2022-10-11T19:51:44.263Z,17.08
2022-10-11T19:54:12.671Z,16.10
2022-10-11T19:56:39.682Z,14.40
2022-10-11T19:59:06.647Z,11.60
2022-10-11T20:01:34.441Z,13.05
2022-10-11T20:04:04.064Z,13.00
2022-10-11T20:06:37.932Z,14.68
2022-10-11T20:09:27.944Z,9.63
2022-10-11T20:14:19.180Z,9.27
2022-10-11T20:16:45.798Z,10.15
2022-10-11T20:19:12.471Z,10.70
2022-10-11T20:21:39.097Z,8.27
2022-10-11T20:24:08.472Z,6.57
2022-10-11T20:26:35.404Z,6.07
2022-10-11T20:29:02.029Z,6.97
2022-10-11T20:31:31.851Z,6.50
2022-10-11T20:34:04.902Z,5.57
2022-10-11T20:36:32.320Z,5.28
2022-10-11T20:39:00.030Z,5.72
2022-10-11T20:41:29.123Z,4.95
2022-10-11T20:49:01.163Z,4.72
2022-10-11T20:51:29.604Z,6.00
2022-10-11T20:53:56.579Z,6.05
2022-10-11T20:56:23.449Z,4.43
2022-10-11T20:58:52.420Z,12.18
2022-10-11T21:01:21.351Z,8.68
2022-10-11T21:03:48.146Z,11.45
2022-10-11T21:06:14.809Z,8.77
2022-10-11T21:08:41.909Z,10.60
2022-10-11T21:11:09.284Z,9.50
2022-10-11T21:13:36.648Z,8.50
2022-10-11T21:16:10.576Z,8.98
2022-10-11T21:18:37.447Z,9.55
2022-10-11T21:21:14.464Z,7.78
2022-10-11T21:23:41.819Z,6.90
2022-10-11T21:26:11.418Z,7.13
2022-10-11T21:28:38.823Z,7.15
2022-10-11T21:31:14.705Z,6.47
2022-10-11T21:33:42.422Z,6.60
2022-10-11T21:36:15.691Z,5.63
2022-10-11T21:38:42.546Z,5.97
2022-10-11T21:41:13.203Z,7.25
2022-10-11T21:43:39.985Z,7.47
2022-10-11T21:46:11.237Z,8.30
2022-10-11T21:48:38.559Z,7.28
2022-10-11T21:51:05.695Z,7.13
2022-10-11T21:53:32.801Z,8.60
2022-10-11T21:55:59.996Z,7.88
2022-10-11T21:58:27.569Z,7.95
2022-10-11T22:00:54.775Z,6.85
2022-10-11T22:03:21.522Z,7.38
2022-10-11T22:05:48.410Z,7.55
2022-10-11T22:08:15.643Z,7.57
2022-10-11T22:10:53.177Z,5.90
2022-10-11T22:13:19.853Z,6.68
2022-10-11T22:15:46.516Z,9.13
2022-10-11T22:18:13.179Z,9.35
2022-10-11T22:20:39.820Z,11.95
2022-10-11T22:23:06.523Z,12.75
2022-10-11T22:25:37.749Z,11.23
2022-10-11T22:28:05.067Z,11.15
2022-10-11T22:30:32.236Z,12.60
2022-10-11T22:32:58.906Z,10.98
2022-10-11T22:35:25.600Z,10.77
2022-10-11T22:37:52.682Z,10.30
2022-10-11T22:40:20.064Z,10.68
2022-10-11T22:42:46.786Z,9.80
2022-10-11T22:45:13.630Z,9.57
2022-10-11T22:47:40.237Z,10.05
2022-10-11T22:50:07.103Z,8.30
2022-10-11T22:52:33.821Z,7.95
2022-10-11T22:55:00.481Z,6.75
2022-10-11T22:57:27.119Z,8.02
2022-10-11T22:59:53.777Z,7.88
2022-10-11T23:02:20.411Z,7.25
2022-10-11T23:04:47.122Z,7.70
2022-10-11T23:07:14.749Z,8.02
2022-10-11T23:09:41.376Z,6.93
2022-10-11T23:12:08.147Z,7.15
2022-10-11T23:14:34.766Z,7.38
2022-10-11T23:17:01.482Z,8.20
2022-10-11T23:19:28.105Z,7.38
2022-10-11T23:21:54.722Z,8.07
2022-10-11T23:24:21.402Z,7.63
2022-10-11T23:26:48.074Z,8.10
2022-10-11T23:29:14.710Z,6.85
2022-10-11T23:31:41.346Z,7.05
2022-10-11T23:34:07.998Z,7.07
2022-10-11T23:36:34.624Z,6.72
2022-10-11T23:39:01.546Z,7.80
2022-10-11T23:41:29.592Z,6.50
2022-10-11T23:43:56.689Z,6.47
2022-10-11T23:46:23.355Z,6.72
2022-10-11T23:48:50.207Z,6.30
2022-10-11T23:51:16.873Z,5.22
2022-10-11T23:53:43.538Z,6.55
2022-10-11T23:56:11.254Z,5.30
2022-10-11T23:58:38.262Z,5.07
